createdAt,value
2019-06-08T00:01:35.477Z,0.90
2019-06-08T00:04:04.015Z,1.23
2019-06-08T00:06:32.604Z,1.07
2019-06-08T00:09:01.130Z,1.37
2019-06-08T00:11:29.633Z,1.57
2019-06-08T00:13:58.088Z,1.40
2019-06-08T00:16:26.602Z,1.00
2019-06-08T00:18:55.128Z,1.10
2019-06-08T00:21:24.142Z,1.40
2019-06-08T00:23:52.960Z,1.20
2019-06-08T00:26:22.170Z,1.07
2019-06-08T00:28:50.688Z,1.17
2019-06-08T00:31:20.096Z,1.23
2019-06-08T00:33:49.034Z,1.50
2019-06-08T00:36:18.716Z,1.20
2019-06-08T00:38:47.430Z,1.20
2019-06-08T00:41:17.044Z,1.07
2019-06-08T00:43:45.668Z,1.00
2019-06-08T00:46:15.237Z,0.80
2019-06-08T00:48:43.886Z,1.00
2019-06-08T00:51:12.467Z,0.70
2019-06-08T00:53:40.971Z,1.20
2019-06-08T00:56:10.038Z,1.20
2019-06-08T00:58:38.731Z,1.03
2019-06-08T01:01:07.286Z,1.00
2019-06-08T01:03:35.999Z,0.80
2019-06-08T01:06:04.814Z,0.87
2019-06-08T01:08:33.445Z,0.87
2019-06-08T01:11:02.111Z,0.80
2019-06-08T01:13:30.647Z,0.77
2019-06-08T01:15:59.112Z,0.80
2019-06-08T01:18:27.616Z,0.87
2019-06-08T01:20:56.248Z,0.90
2019-06-08T01:23:25.607Z,0.77
2019-06-08T01:25:54.193Z,0.90
2019-06-08T01:28:23.952Z,0.70
2019-06-08T01:30:52.595Z,0.83
2019-06-08T01:33:22.512Z,0.90
2019-06-08T01:35:51.344Z,0.83
2019-06-08T01:38:21.051Z,0.80
2019-06-08T01:40:49.759Z,0.90
2019-06-08T01:43:18.256Z,0.97
2019-06-08T01:45:46.784Z,0.60
2019-06-08T01:48:20.202Z,1.03
2019-06-08T01:50:45.611Z,0.70
2019-06-08T01:53:14.142Z,1.00
2019-06-08T01:55:42.596Z,1.00
2019-06-08T01:58:11.080Z,0.90
2019-06-08T02:00:41.638Z,0.90
2019-06-08T02:03:10.183Z,0.90
2019-06-08T02:05:38.875Z,0.80
2019-06-08T02:08:07.490Z,0.90
2019-06-08T02:10:35.731Z,0.80
2019-06-08T02:13:07.660Z,0.80
2019-06-08T02:15:35.387Z,1.20
2019-06-08T02:18:04.117Z,0.90
2019-06-08T02:20:33.039Z,0.90
2019-06-08T02:23:01.823Z,1.00
2019-06-08T02:25:31.258Z,0.90
2019-06-08T02:28:00.297Z,0.63
2019-06-08T02:30:32.725Z,0.80
2019-06-08T02:33:00.698Z,0.90
2019-06-08T02:35:30.700Z,0.80
2019-06-08T02:37:59.491Z,1.07
2019-06-08T02:40:30.025Z,0.90
2019-06-08T02:42:58.254Z,0.80
2019-06-08T02:45:26.886Z,1.17
2019-06-08T02:47:55.351Z,0.80
2019-06-08T02:50:53.862Z,0.80
2019-06-08T02:53:23.354Z,1.20
2019-06-08T02:55:52.133Z,0.77
2019-06-08T02:58:21.807Z,0.80
2019-06-08T03:00:52.592Z,1.83
2019-06-08T03:03:21.162Z,0.87
2019-06-08T03:05:51.136Z,0.90
2019-06-08T03:08:20.774Z,0.90
2019-06-08T03:13:27.093Z,0.80
2019-06-08T03:15:55.590Z,0.93
2019-06-08T03:18:24.042Z,0.97
2019-06-08T03:20:52.673Z,0.80
2019-06-08T03:23:21.174Z,0.90
2019-06-08T03:25:53.071Z,0.90
2019-06-08T03:28:20.012Z,0.90
2019-06-08T03:30:54.351Z,0.97
2019-06-08T03:33:18.782Z,1.20
2019-06-08T03:35:56.480Z,0.90
2019-06-08T03:38:17.577Z,0.70
2019-06-08T03:40:46.397Z,0.83
2019-06-08T03:43:15.135Z,0.97
2019-06-08T03:45:45.177Z,0.93
2019-06-08T03:48:14.172Z,0.80
2019-06-08T03:50:44.489Z,0.73
2019-06-08T03:53:13.084Z,0.80
2019-06-08T03:55:43.033Z,0.97
2019-06-08T03:58:11.986Z,0.83
2019-06-08T04:00:40.580Z,0.80
2019-06-08T04:03:09.450Z,1.10
2019-06-08T04:05:40.230Z,1.00
2019-06-08T04:08:08.255Z,0.93
2019-06-08T04:10:37.602Z,0.80
2019-06-08T04:13:06.390Z,0.90
2019-06-08T04:15:35.336Z,0.87
2019-06-08T04:18:03.859Z,1.00
2019-06-08T04:20:32.335Z,1.13
2019-06-08T04:23:01.080Z,1.10
2019-06-08T04:25:29.623Z,0.97
2019-06-08T04:27:58.170Z,0.80
2019-06-08T04:30:27.143Z,0.80
2019-06-08T04:32:55.721Z,0.90
2019-06-08T04:35:24.333Z,0.80
2019-06-08T04:37:52.840Z,0.90
2019-06-08T04:40:21.422Z,0.80
2019-06-08T04:42:51.036Z,0.87
2019-06-08T04:45:19.915Z,0.90
2019-06-08T04:47:50.164Z,1.10
2019-06-08T04:50:23.135Z,1.00
2019-06-08T04:52:49.960Z,1.00
2019-06-08T04:55:18.780Z,1.43
2019-06-08T04:57:48.720Z,1.00
2019-06-08T05:00:17.786Z,0.90
2019-06-08T05:02:48.627Z,0.90
2019-06-08T05:05:16.504Z,1.00
2019-06-08T05:07:46.033Z,1.10
2019-06-08T05:10:15.408Z,0.90
2019-06-08T05:12:45.579Z,0.90
2019-06-08T05:15:14.627Z,1.00
2019-06-08T05:17:43.338Z,0.87
2019-06-08T05:20:12.200Z,1.20
2019-06-08T05:22:41.459Z,1.00
2019-06-08T05:25:11.038Z,1.10
2019-06-08T05:27:39.486Z,1.10
2019-06-08T05:30:09.145Z,1.33
2019-06-08T05:32:39.306Z,0.90
2019-06-08T05:35:08.764Z,1.13
2019-06-08T05:37:37.302Z,1.20
2019-06-08T05:40:06.810Z,1.57
2019-06-08T05:42:35.439Z,0.90
2019-06-08T05:45:06.636Z,1.10
2019-06-08T05:47:35.320Z,1.10
2019-06-08T05:50:06.246Z,0.97
2019-06-08T05:52:34.816Z,0.90
2019-06-08T05:55:03.749Z,1.00
2019-06-08T05:57:32.292Z,1.10
2019-06-08T06:00:08.429Z,1.07
2019-06-08T06:02:31.352Z,1.63
2019-06-08T06:04:59.810Z,1.00
2019-06-08T06:07:28.366Z,0.90
2019-06-08T06:09:56.834Z,0.70
2019-06-08T06:12:25.385Z,0.83
2019-06-08T06:14:54.201Z,0.90
2019-06-08T06:17:22.802Z,1.30
2019-06-08T06:19:51.580Z,1.27
2019-06-08T06:22:20.204Z,1.10
2019-06-08T06:24:49.713Z,0.93
2019-06-08T06:27:18.084Z,1.10
2019-06-08T06:29:47.863Z,1.10
2019-06-08T06:32:16.924Z,1.10
2019-06-08T06:34:45.844Z,1.10
2019-06-08T06:37:14.742Z,0.90
2019-06-08T06:39:43.936Z,1.10
2019-06-08T06:42:12.682Z,1.10
2019-06-08T06:44:42.077Z,1.23
2019-06-08T06:47:11.016Z,1.20
2019-06-08T06:49:39.526Z,1.20
2019-06-08T06:52:08.014Z,1.13
2019-06-08T06:54:36.455Z,1.23
2019-06-08T06:57:05.454Z,1.20
2019-06-08T06:59:34.044Z,1.20
2019-06-08T07:02:02.535Z,1.30
2019-06-08T07:04:31.033Z,1.00
2019-06-08T07:06:59.581Z,1.17
2019-06-08T07:09:28.527Z,1.10
2019-06-08T07:11:57.094Z,1.20
2019-06-08T07:14:25.915Z,1.00
2019-06-08T07:16:54.385Z,1.10
2019-06-08T07:19:22.979Z,1.13
2019-06-08T07:21:53.071Z,1.20
2019-06-08T07:24:21.818Z,1.60
2019-06-08T07:26:50.571Z,1.20
2019-06-08T07:29:19.142Z,1.40
2019-06-08T07:31:48.637Z,1.30
2019-06-08T07:34:18.580Z,1.10
2019-06-08T07:36:48.462Z,1.30
2019-06-08T07:39:17.302Z,1.10
2019-06-08T07:41:45.765Z,1.10
2019-06-08T07:44:14.264Z,1.07
2019-06-08T07:46:42.956Z,0.90
2019-06-08T07:49:11.489Z,1.17
2019-06-08T07:51:40.049Z,0.90
2019-06-08T07:54:08.511Z,1.20
2019-06-08T07:56:37.267Z,1.30
2019-06-08T07:59:05.862Z,0.97
2019-06-08T08:01:36.555Z,1.00
2019-06-08T08:04:04.830Z,1.07
2019-06-08T08:06:33.471Z,0.90
2019-06-08T08:09:01.967Z,1.03
2019-06-08T08:11:30.427Z,1.77
2019-06-08T08:13:59.170Z,1.07
2019-06-08T08:16:27.969Z,1.10
2019-06-08T08:18:57.609Z,1.00
2019-06-08T08:21:29.302Z,0.93
2019-06-08T08:23:59.416Z,1.00
2019-06-08T08:26:27.999Z,1.30
2019-06-08T08:29:01.340Z,1.03
2019-06-08T08:31:27.989Z,1.30
2019-06-08T08:34:03.370Z,0.90
2019-06-08T08:36:29.396Z,1.10
2019-06-08T08:39:00.519Z,1.03
2019-06-08T08:41:27.949Z,1.10
2019-06-08T08:43:58.957Z,1.10
2019-06-08T08:46:28.533Z,1.23
2019-06-08T08:49:05.904Z,1.03
2019-06-08T08:51:28.039Z,1.50
2019-06-08T08:54:03.034Z,1.67
2019-06-08T09:33:23.534Z,1.10
2019-06-08T09:35:54.417Z,1.40
2019-06-08T09:38:22.314Z,1.37
2019-06-08T09:40:50.942Z,1.20
2019-06-08T09:43:19.475Z,1.23
2019-06-08T09:45:48.378Z,1.40
2019-06-08T09:48:18.184Z,1.07
2019-06-08T09:50:48.658Z,1.10
2019-06-08T09:53:26.804Z,1.40
2019-06-08T09:55:48.277Z,1.33
2019-06-08T09:58:18.029Z,0.90
2019-06-08T10:00:48.617Z,1.20
2019-06-08T10:03:18.654Z,1.20
2019-06-08T10:05:48.411Z,1.00
2019-06-08T10:08:20.205Z,1.00
2019-06-08T10:10:48.392Z,1.33
2019-06-08T10:13:18.953Z,1.50
2019-06-08T10:15:51.191Z,1.30
2019-06-08T10:18:17.712Z,1.10
2019-06-08T10:20:48.163Z,1.30
2019-06-08T10:23:29.847Z,1.40
2019-06-08T10:25:48.224Z,0.90
2019-06-08T10:28:20.976Z,1.50
2019-06-08T10:30:48.531Z,1.40
2019-06-08T10:33:18.413Z,1.10
2019-06-08T10:35:48.063Z,1.40
2019-06-08T10:38:18.125Z,1.20
2019-06-08T10:41:13.113Z,1.50
2019-06-08T10:43:33.034Z,1.60
2019-06-08T10:46:08.371Z,1.17
2019-06-08T10:48:32.021Z,1.27
2019-06-08T10:51:03.715Z,1.60
2019-06-08T10:53:45.213Z,1.40
2019-06-08T10:56:01.710Z,1.20
2019-06-08T10:58:31.230Z,1.53
2019-06-08T11:01:02.608Z,1.50
2019-06-08T11:03:30.641Z,1.13
2019-06-08T11:06:01.215Z,1.23
2019-06-08T11:08:29.710Z,1.20
2019-06-08T11:10:59.978Z,1.20
2019-06-08T11:13:28.481Z,1.10
2019-06-08T11:15:58.688Z,1.17
2019-06-08T11:18:28.646Z,1.53
2019-06-08T11:20:59.453Z,1.50
2019-06-08T11:23:28.758Z,1.00
2019-06-08T11:25:59.527Z,1.03
2019-06-08T11:28:28.356Z,1.80
2019-06-08T11:30:57.293Z,1.43
2019-06-08T11:33:30.303Z,1.37
2019-06-08T11:35:58.171Z,1.70
2019-06-08T11:38:28.722Z,1.30
2019-06-08T11:40:57.474Z,1.10
2019-06-08T11:43:28.739Z,1.20
2019-06-08T11:45:58.398Z,1.20
2019-06-08T11:48:28.512Z,1.40
2019-06-08T11:50:58.503Z,1.50
2019-06-08T11:53:28.831Z,1.30
2019-06-08T11:55:58.639Z,1.60
2019-06-08T11:58:28.253Z,1.60
2019-06-08T12:01:03.313Z,1.40
2019-06-08T12:03:31.601Z,1.20
2019-06-08T12:06:00.196Z,1.23
2019-06-08T12:08:28.780Z,1.60
2019-06-08T12:11:01.233Z,1.37
2019-06-08T12:13:27.958Z,1.30
2019-06-08T12:15:58.905Z,1.50
2019-06-08T12:18:27.021Z,1.67
2019-06-08T12:20:55.477Z,1.60
2019-06-08T12:23:23.983Z,1.40
2019-06-08T12:25:52.441Z,1.30
2019-06-08T12:28:23.764Z,1.50
2019-06-08T12:30:52.326Z,1.50
2019-06-08T12:33:22.835Z,1.50
2019-06-08T12:35:51.157Z,1.70
2019-06-08T12:38:19.662Z,1.67
2019-06-08T12:40:48.692Z,1.70
2019-06-08T12:43:18.961Z,1.50
2019-06-08T12:45:47.640Z,2.17
2019-06-08T12:48:20.460Z,1.20
2019-06-08T12:50:47.992Z,1.30
2019-06-08T12:53:20.667Z,1.40
2019-06-08T12:55:47.640Z,1.20
2019-06-08T12:58:17.188Z,1.40
2019-06-08T13:00:48.297Z,1.53
2019-06-08T13:03:16.803Z,1.60
2019-06-08T13:05:45.394Z,1.60
2019-06-08T13:08:15.224Z,1.50
2019-06-08T13:10:44.538Z,1.40
2019-06-08T13:13:13.025Z,1.20
2019-06-08T13:15:41.625Z,1.70
2019-06-08T13:18:13.715Z,1.40
2019-06-08T13:20:43.089Z,2.07
2019-06-08T13:23:11.672Z,1.80
2019-06-08T13:25:43.804Z,1.60
2019-06-08T13:28:15.180Z,1.43
2019-06-08T13:30:41.169Z,1.60
2019-06-08T13:33:09.962Z,1.40
2019-06-08T13:35:39.563Z,1.70
2019-06-08T13:38:08.871Z,1.30
2019-06-08T13:40:40.196Z,1.70
2019-06-08T13:43:08.280Z,1.53
2019-06-08T13:45:39.438Z,1.90
2019-06-08T13:48:08.898Z,1.20
2019-06-08T13:50:37.789Z,1.50
2019-06-08T13:53:10.663Z,1.50
2019-06-08T13:55:49.722Z,1.40
2019-06-08T13:58:06.987Z,1.80
2019-06-08T14:00:38.549Z,1.80
2019-06-08T14:03:08.624Z,1.60
2019-06-08T14:05:38.946Z,1.50
2019-06-08T14:08:10.592Z,1.47
2019-06-08T14:10:40.887Z,1.23
2019-06-08T14:13:09.948Z,1.60
2019-06-08T14:15:38.407Z,1.60
2019-06-08T14:18:08.736Z,1.30
2019-06-08T14:20:38.671Z,1.60
2019-06-08T14:23:09.217Z,1.70
2019-06-08T14:25:47.932Z,1.23
2019-06-08T14:28:08.105Z,1.50
2019-06-08T14:30:37.788Z,1.30
2019-06-08T14:33:08.370Z,1.23
2019-06-08T14:35:36.677Z,1.10
2019-06-08T14:38:05.137Z,1.20
2019-06-08T14:40:33.691Z,1.27
2019-06-08T14:43:02.263Z,1.33
2019-06-08T14:45:31.188Z,1.03
2019-06-08T14:47:59.902Z,1.70
2019-06-08T14:50:30.644Z,1.43
2019-06-08T14:52:59.105Z,1.40
2019-06-08T14:55:33.897Z,1.33
2019-06-08T14:57:58.246Z,1.30
2019-06-08T15:00:27.760Z,1.57
2019-06-08T15:02:58.964Z,1.23
2019-06-08T15:05:32.160Z,1.20
2019-06-08T15:08:00.878Z,1.10
2019-06-08T15:10:31.224Z,1.63
2019-06-08T15:12:59.972Z,1.43
2019-06-08T15:15:30.761Z,1.20
2019-06-08T15:17:58.654Z,1.30
2019-06-08T15:20:30.343Z,1.20
2019-06-08T15:22:58.951Z,1.10
2019-06-08T15:25:30.016Z,1.20
2019-06-08T15:28:01.186Z,1.37
2019-06-08T15:30:29.787Z,1.30
2019-06-08T15:32:58.786Z,1.77
2019-06-08T15:35:27.557Z,1.30
2019-06-08T15:37:58.390Z,1.80
2019-06-08T15:40:26.352Z,1.40
2019-06-08T15:42:55.220Z,1.30
2019-06-08T15:45:24.253Z,1.43
2019-06-08T15:47:53.067Z,1.40
2019-06-08T15:50:22.291Z,1.30
2019-06-08T15:52:50.820Z,1.20
2019-06-08T15:55:19.800Z,1.23
2019-06-08T15:57:48.367Z,1.57
2019-06-08T16:00:18.516Z,0.90
2019-06-08T16:02:47.189Z,1.03
2019-06-08T16:05:15.888Z,1.07
2019-06-08T16:07:44.454Z,0.90
2019-06-08T16:10:13.288Z,1.20
2019-06-08T16:12:41.930Z,0.93
2019-06-08T16:15:10.914Z,1.00
2019-06-08T16:17:39.407Z,1.20
2019-06-08T16:20:08.035Z,1.03
2019-06-08T16:22:36.670Z,1.20
2019-06-08T16:25:06.694Z,1.00
2019-06-08T16:27:36.509Z,1.23
2019-06-08T16:30:09.435Z,1.50
2019-06-08T16:32:39.716Z,1.20
2019-06-08T16:35:08.436Z,1.07
2019-06-08T16:37:36.937Z,0.93
2019-06-08T16:40:08.759Z,0.80
2019-06-08T16:42:38.571Z,1.20
2019-06-08T16:45:07.823Z,0.90
2019-06-08T16:47:36.601Z,1.00
2019-06-08T16:50:20.998Z,1.23
2019-06-08T16:52:38.763Z,1.20
2019-06-08T16:55:07.586Z,1.07
2019-06-08T16:57:38.286Z,1.13
2019-06-08T17:02:39.165Z,1.10
2019-06-08T17:05:08.252Z,1.40
2019-06-08T17:07:37.713Z,0.90
2019-06-08T17:10:08.298Z,0.97
2019-06-08T17:12:37.085Z,1.00
2019-06-08T17:15:06.716Z,1.20
2019-06-08T17:17:36.542Z,1.03
2019-06-08T17:20:07.665Z,1.00
2019-06-08T17:22:36.827Z,1.10
2019-06-08T17:25:08.827Z,1.00
2019-06-08T17:27:37.321Z,2.17
2019-06-08T17:30:09.311Z,1.80
2019-06-08T17:32:38.529Z,1.27
2019-06-08T17:35:09.017Z,1.00
2019-06-08T17:37:38.391Z,1.30
2019-06-08T17:40:07.013Z,1.20
2019-06-08T17:42:35.662Z,1.13
2019-06-08T17:45:08.408Z,1.30
2019-06-08T17:47:36.899Z,1.30
2019-06-08T17:50:08.425Z,1.20
2019-06-08T17:52:37.121Z,1.40
2019-06-08T17:55:06.749Z,1.17
2019-06-08T17:57:44.691Z,1.50
2019-06-08T18:00:08.213Z,1.43
2019-06-08T18:02:39.841Z,67.20
2019-06-08T18:05:08.302Z,53.03
2019-06-08T18:07:39.076Z,45.23
2019-06-08T18:10:07.330Z,3.47
2019-06-08T18:12:39.254Z,12.13
2019-06-08T18:15:07.909Z,4.33
2019-06-08T18:17:41.612Z,28.07
2019-06-08T18:20:17.558Z,116.77
2019-06-08T18:22:46.557Z,14.87
2019-06-08T18:25:17.469Z,20.63
2019-06-08T18:28:02.651Z,56.43
2019-06-08T18:30:18.949Z,55.97
2019-06-08T18:32:48.553Z,78.37
2019-06-08T18:35:18.221Z,37.33
2019-06-08T18:37:48.674Z,25.27
2019-06-08T18:40:18.214Z,41.43
2019-06-08T18:42:48.812Z,5.30
2019-06-08T18:45:18.488Z,2.43
2019-06-08T18:47:48.492Z,2.87
2019-06-08T18:50:17.522Z,1.60
2019-06-08T18:52:47.312Z,1.50
2019-06-08T18:55:18.212Z,2.20
2019-06-08T18:57:49.086Z,1.60
2019-06-08T19:00:18.235Z,2.17
2019-06-08T19:02:53.895Z,2.07
2019-06-08T19:05:20.762Z,1.60
2019-06-08T19:07:50.018Z,1.90
2019-06-08T19:10:20.608Z,1.90
2019-06-08T19:12:50.649Z,1.77
2019-06-08T19:15:22.299Z,2.27
2019-06-08T19:17:54.517Z,2.00
2019-06-08T19:20:20.957Z,2.20
2019-06-08T19:22:54.110Z,1.67
2019-06-08T19:25:19.946Z,1.87
2019-06-08T19:27:53.165Z,2.00
2019-06-08T19:30:20.334Z,2.10
2019-06-08T19:32:52.300Z,2.00
2019-06-08T19:35:19.245Z,1.70
2019-06-08T19:37:53.266Z,2.30
2019-06-08T19:40:18.206Z,2.27
2019-06-08T19:42:56.868Z,2.60
2019-06-08T19:45:18.202Z,2.33
2019-06-08T19:47:46.748Z,1.70
2019-06-08T19:50:17.269Z,2.03
2019-06-08T19:52:50.747Z,1.80
2019-06-08T19:55:18.134Z,1.60
2019-06-08T19:57:49.052Z,1.43
2019-06-08T20:00:18.030Z,1.70
2019-06-08T20:02:47.781Z,2.73
2019-06-08T20:05:17.486Z,1.43
2019-06-08T20:07:49.117Z,1.67
2019-06-08T20:10:18.175Z,1.77
2019-06-08T20:12:48.363Z,2.00
2019-06-08T20:15:18.372Z,1.93
2019-06-08T20:17:48.889Z,1.70
2019-06-08T20:20:18.362Z,2.23
2019-06-08T20:22:50.113Z,2.10
2019-06-08T20:25:17.887Z,2.17
2019-06-08T20:27:49.741Z,2.00
2019-06-08T20:30:17.882Z,2.13
2019-06-08T20:32:47.213Z,2.07
2019-06-08T20:35:17.408Z,2.30
2019-06-08T20:37:47.857Z,2.20
2019-06-08T20:40:18.037Z,2.27
2019-06-08T20:42:49.319Z,2.30
2019-06-08T20:45:17.288Z,2.47
2019-06-08T20:47:49.421Z,2.20
2019-06-08T20:50:17.603Z,2.60
2019-06-08T20:52:47.219Z,2.43
2019-06-08T20:55:17.517Z,2.20
2019-06-08T20:57:49.086Z,2.27
2019-06-08T21:00:16.811Z,2.50
2019-06-08T21:02:46.443Z,2.40
2019-06-08T21:05:18.084Z,3.07
2019-06-08T21:07:49.217Z,3.47
2019-06-08T21:10:17.477Z,4.20
2019-06-08T21:12:49.572Z,5.00
2019-06-08T21:15:17.795Z,4.43
2019-06-08T21:17:49.168Z,4.07
2019-06-08T21:20:17.697Z,4.23
2019-06-08T21:22:50.034Z,4.00
2019-06-08T21:25:17.587Z,4.07
2019-06-08T21:27:48.480Z,4.60
2019-06-08T21:30:23.921Z,3.93
2019-06-08T21:32:50.361Z,3.87
2019-06-08T21:35:18.380Z,4.07
2019-06-08T21:37:51.442Z,3.50
2019-06-08T21:40:20.077Z,3.27
2019-06-08T21:42:50.366Z,3.00
2019-06-08T21:45:19.110Z,2.67
2019-06-08T21:47:50.017Z,3.07
2019-06-08T21:50:18.598Z,3.03
2019-06-08T21:52:51.078Z,2.93
2019-06-08T21:55:18.337Z,2.40
2019-06-08T21:57:49.500Z,2.80
2019-06-08T22:00:38.898Z,2.30
2019-06-08T22:02:51.740Z,2.53
2019-06-08T22:05:20.312Z,2.70
2019-06-08T22:07:49.961Z,3.83
2019-06-08T22:10:18.709Z,2.20
2019-06-08T22:12:48.404Z,2.33
2019-06-08T22:15:18.328Z,2.37
2019-06-08T22:17:47.591Z,2.93
2019-06-08T22:20:18.459Z,2.40
2019-06-08T22:22:47.305Z,2.53
2019-06-08T22:25:17.552Z,2.33
2019-06-08T22:27:46.408Z,2.20
2019-06-08T22:30:32.420Z,2.50
2019-06-08T22:32:47.434Z,2.00
2019-06-08T22:35:16.365Z,2.00
2019-06-08T22:37:44.827Z,2.13
2019-06-08T22:40:13.620Z,2.10
2019-06-08T22:42:42.114Z,1.77
2019-06-08T22:45:11.213Z,2.00
2019-06-08T22:47:39.700Z,2.07
2019-06-08T22:50:09.001Z,2.30
2019-06-08T22:52:37.694Z,2.50
2019-06-08T22:55:10.719Z,2.17
2019-06-08T22:57:37.852Z,2.67
2019-06-08T23:00:14.449Z,2.27
2019-06-08T23:02:38.780Z,2.20
2019-06-08T23:05:09.159Z,2.13
2019-06-08T23:07:37.951Z,2.20
2019-06-08T23:10:09.209Z,2.20
2019-06-08T23:12:38.359Z,1.80
2019-06-08T23:15:08.674Z,1.63
2019-06-08T23:17:38.586Z,2.87
2019-06-08T23:20:08.893Z,1.90
2019-06-08T23:22:38.430Z,2.00
2019-06-08T23:25:09.454Z,2.17
2019-06-08T23:27:38.223Z,2.40
2019-06-08T23:30:10.303Z,2.20
2019-06-08T23:32:39.362Z,2.10
2019-06-08T23:35:09.521Z,2.00
2019-06-08T23:37:38.454Z,1.80
2019-06-08T23:40:08.400Z,2.30
2019-06-08T23:42:38.264Z,1.83
2019-06-08T23:45:10.145Z,2.33
2019-06-08T23:47:38.502Z,3.07
2019-06-08T23:50:11.270Z,2.20
2019-06-08T23:52:38.600Z,2.53
2019-06-08T23:55:11.379Z,2.70
2019-06-08T23:57:38.822Z,2.90
